Accueil
METAR-TAF:

METAR-TAF

Aéroports :

Monbetsu, Japon

latitude: 44-15N, longitude: 143-32E, altitude: 6 m

Observation

Le bulletin a été fait il y a 1 heure et 9 minutes, à 01:00 UTC
Vent 3 kt de est, variant entre nord/nord-est et sud-est
Température -4°C
Humidité 86%
Pression 1018 hPa
Visibilité 10 km ou plus
Quelques nuages à une hauteur de 1000 ft
Nuages fragmentés à une hauteur de 6000 ft
faibles averses de neige

METAR: RJEB 230100Z 10003KT 030V140 9999 -SHSN FEW010 BKN060 M04/M06 Q1018

Heure: 11:09 (02:09 UTC)


TAF: absent

Observations et prévisions météorologiques de plus de 4000 aéroports (messages METAR et TAF).

Les stations disponibles sont représentées par des disques jaunes et rouges sur la carte.

Passer la souris dessus pour voir le nom de la station.

Cliquer dessus pour voir les observations et prévisions météorologiques.

Pour changer de carte: cliquez sur les boutons verts avec une croix noire pour zoomer, sur le bouton vert avec un tiret pour effectuer un zoom arrière, ou sur les flèches vertes pour les cartes adjacentes.


METAR-TAF: